createdAt,value
2024-01-05T00:01:30.302Z,96046.25
2024-01-05T00:03:33.408Z,96037.72
2024-01-05T00:05:37.097Z,96035.88
2024-01-05T00:07:41.399Z,96028.28
2024-01-05T00:09:44.282Z,96020.34
2024-01-05T00:11:48.313Z,96012.38
2024-01-05T00:13:51.251Z,96014.22
2024-01-05T00:15:54.340Z,96008.13
2024-01-05T00:17:58.215Z,95985.91
2024-01-05T00:20:01.360Z,95983.88
2024-01-05T00:22:04.316Z,95976.94
2024-01-05T00:24:08.968Z,95975.31
2024-01-05T00:26:11.814Z,95977.75
2024-01-05T00:28:15.013Z,95965.53
2024-01-05T00:30:18.145Z,95963.91
2024-01-05T00:32:21.091Z,95965.31
2024-01-05T00:34:24.031Z,95963.47
2024-01-05T00:36:26.998Z,95965.09
2024-01-05T00:38:28.951Z,95970.16
2024-01-05T00:40:33.204Z,95972.00
2024-01-05T00:42:36.236Z,95965.91
2024-01-05T00:44:39.182Z,95956.94
2024-01-05T00:46:42.315Z,95941.03
2024-01-05T00:48:44.495Z,95945.53
2024-01-05T00:50:47.713Z,95946.31
2024-01-05T00:52:50.868Z,95954.94
2024-01-05T00:54:54.010Z,95961.88
2024-01-05T00:56:58.294Z,95957.97
2024-01-05T00:59:01.182Z,95950.00
2024-01-05T01:01:04.831Z,95945.28
2024-01-05T01:03:08.223Z,95947.94
2024-01-05T01:05:12.124Z,95949.56
2024-01-05T01:07:14.756Z,95944.25
2024-01-05T01:09:18.033Z,95947.94
2024-01-05T01:11:23.315Z,95944.84
2024-01-05T01:13:29.451Z,95944.59
2024-01-05T01:15:31.578Z,95942.78
2024-01-05T01:17:34.825Z,95941.16
2024-01-05T01:19:37.724Z,95936.88
2024-01-05T01:21:40.731Z,95938.97
2024-01-05T01:23:43.700Z,95942.66
2024-01-05T01:25:45.806Z,95935.16
2024-01-05T01:27:48.678Z,95961.47
2024-01-05T01:29:52.699Z,95951.69
2024-01-05T01:31:54.621Z,95955.97
2024-01-05T01:33:58.399Z,95950.47
2024-01-05T01:36:00.948Z,95958.19
2024-01-05T01:38:04.031Z,95951.03
2024-01-05T01:40:07.767Z,95941.47
2024-01-05T01:42:10.660Z,95936.19
2024-01-05T01:44:13.664Z,95937.78
2024-01-05T01:46:18.291Z,95939.41
2024-01-05T01:48:21.183Z,95930.44
2024-01-05T01:50:25.989Z,95913.72
2024-01-05T01:52:29.402Z,95919.84
2024-01-05T01:54:34.688Z,95919.03
2024-01-05T01:56:39.722Z,95911.53
2024-01-05T01:58:45.612Z,95917.03
2024-01-05T02:00:49.022Z,95907.47
2024-01-05T02:02:55.749Z,95901.00
2024-01-05T02:04:59.514Z,95912.63
2024-01-05T02:07:03.493Z,95912.63
2024-01-05T02:09:07.177Z,95916.91
2024-01-05T02:11:10.070Z,95904.25
2024-01-05T02:13:13.081Z,95901.59
2024-01-05T02:15:16.023Z,95901.59
2024-01-05T02:17:32.576Z,95904.25
2024-01-05T02:19:37.104Z,95910.13
2024-01-05T02:21:44.234Z,95897.91
2024-01-05T02:23:47.515Z,95897.47
2024-01-05T02:25:50.559Z,95882.16
2024-01-05T02:27:53.398Z,95875.84
2024-01-05T02:29:55.361Z,95882.28
2024-01-05T02:31:58.465Z,95881.47
2024-01-05T02:34:02.183Z,95880.69
2024-01-05T02:36:05.648Z,95879.06
2024-01-05T02:38:08.923Z,95865.59
2024-01-05T02:40:14.652Z,95859.25
2024-01-05T02:42:16.710Z,95864.56
2024-01-05T02:44:19.717Z,95869.63
2024-01-05T02:46:21.894Z,95862.72
2024-01-05T02:48:24.924Z,95860.28
2024-01-05T02:50:27.836Z,95863.75
2024-01-05T02:52:29.702Z,95857.41
2024-01-05T02:54:32.710Z,95848.66
2024-01-05T02:56:37.623Z,95844.97
2024-01-05T02:58:40.122Z,95842.94
2024-01-05T03:00:43.163Z,95846.38
2024-01-05T03:02:46.146Z,95832.91
2024-01-05T03:04:48.223Z,95835.34
2024-01-05T03:06:51.151Z,95828.19
2024-01-05T03:08:54.237Z,95827.38
2024-01-05T03:10:57.764Z,95829.00
2024-01-05T03:13:02.085Z,95827.38
2024-01-05T03:15:04.634Z,95824.72
2024-01-05T03:17:07.864Z,95818.41
2024-01-05T03:19:11.739Z,95821.03
2024-01-05T03:21:15.030Z,95820.25
2024-01-05T03:23:17.975Z,95812.06
2024-01-05T03:25:20.873Z,95805.97
2024-01-05T03:27:22.740Z,95807.56
2024-01-05T03:29:27.092Z,95801.47
2024-01-05T03:31:30.124Z,95799.38
2024-01-05T03:33:32.307Z,95800.19
2024-01-05T03:35:35.364Z,95793.28
2024-01-05T03:37:38.245Z,95792.47
2024-01-05T03:39:41.442Z,95787.19
2024-01-05T03:41:44.385Z,95783.50
2024-01-05T03:43:47.289Z,95773.69
2024-01-05T03:45:50.588Z,95767.59
2024-01-05T03:47:53.532Z,95775.53
2024-01-05T03:49:56.606Z,95771.28
2024-01-05T03:51:59.568Z,95774.50
2024-01-05T03:54:02.450Z,95763.91
2024-01-05T03:56:05.860Z,95761.25
2024-01-05T03:58:09.033Z,95773.47
2024-01-05T04:00:13.216Z,95772.91
2024-01-05T04:02:17.518Z,95771.28
2024-01-05T04:04:20.753Z,95774.97
2024-01-05T04:06:23.720Z,95772.31
2024-01-05T04:08:26.829Z,95764.84
2024-01-05T04:10:29.699Z,95766.44
2024-01-05T04:12:53.242Z,95765.63
2024-01-05T04:15:16.334Z,95759.53
2024-01-05T04:17:20.568Z,95763.22
2024-01-05T04:19:23.892Z,95760.34
2024-01-05T04:21:27.118Z,95763.00
2024-01-05T04:23:30.268Z,95764.59
2024-01-05T04:25:33.671Z,95759.75
2024-01-05T04:27:35.739Z,95763.00
2024-01-05T04:29:39.860Z,95767.03
2024-01-05T04:31:42.864Z,95767.03
2024-01-05T04:33:47.774Z,95767.81
2024-01-05T04:35:49.829Z,95758.03
2024-01-05T04:37:52.709Z,95751.69
2024-01-05T04:39:55.697Z,95762.28
2024-01-05T04:41:58.657Z,95767.59
2024-01-05T04:44:01.557Z,95758.84
2024-01-05T04:46:06.108Z,95746.84
2024-01-05T04:48:09.521Z,95749.75
2024-01-05T04:50:13.880Z,95751.59
2024-01-05T04:52:17.096Z,95745.72
2024-01-05T04:54:20.000Z,95746.28
2024-01-05T04:56:22.932Z,95748.13
2024-01-05T04:58:26.233Z,95748.94
2024-01-05T05:00:29.230Z,95754.22
2024-01-05T05:02:32.123Z,95743.06
2024-01-05T05:04:35.118Z,95737.75
2024-01-05T05:06:39.406Z,95733.47
2024-01-05T05:08:42.325Z,95722.88
2024-01-05T05:10:45.454Z,95720.47
2024-01-05T05:12:48.373Z,95718.03
2024-01-05T05:14:51.253Z,95712.50
2024-01-05T05:16:54.763Z,95718.84
2024-01-05T05:18:57.783Z,95723.34
2024-01-05T05:21:00.910Z,95722.31
2024-01-05T05:23:05.546Z,95720.47
2024-01-05T05:25:09.075Z,95720.22
2024-01-05T05:27:11.943Z,95723.72
2024-01-05T05:29:14.561Z,95720.84
2024-01-05T05:31:17.747Z,95724.28
2024-01-05T05:33:20.646Z,95724.28
2024-01-05T05:35:24.733Z,95725.66
2024-01-05T05:37:27.832Z,95730.50
2024-01-05T05:39:31.076Z,95735.78
2024-01-05T05:41:34.212Z,95729.69
2024-01-05T05:43:37.090Z,95737.41
2024-01-05T05:45:40.086Z,95734.19
2024-01-05T05:47:43.153Z,95732.56
2024-01-05T05:49:46.217Z,95722.44
2024-01-05T05:51:49.212Z,95733.47
2024-01-05T05:53:52.221Z,95737.16
2024-01-05T05:55:56.548Z,95730.47
2024-01-05T05:58:00.449Z,95739.47
2024-01-05T06:00:06.249Z,95742.13
2024-01-05T06:02:09.244Z,95731.53
2024-01-05T06:04:12.650Z,95733.94
2024-01-05T06:06:20.145Z,95729.44
2024-01-05T06:08:23.183Z,95725.41
2024-01-05T06:10:25.289Z,95729.09
2024-01-05T06:12:29.629Z,95735.44
2024-01-05T06:14:32.492Z,95730.94
2024-01-05T06:16:35.377Z,95726.69
2024-01-05T06:18:39.043Z,95737.28
2024-01-05T06:20:42.296Z,95725.06
2024-01-05T06:22:44.342Z,95731.19
2024-01-05T06:24:47.538Z,95744.19
2024-01-05T06:26:49.411Z,95737.06
2024-01-05T06:28:53.934Z,95736.59
2024-01-05T06:30:56.983Z,95740.84
2024-01-05T06:33:00.526Z,95733.94
2024-01-05T06:35:04.451Z,95733.94
2024-01-05T06:37:07.266Z,95735.53
2024-01-05T06:39:10.430Z,95721.25
2024-01-05T06:41:13.321Z,95722.31
2024-01-05T06:43:16.239Z,95717.00
2024-01-05T06:45:20.479Z,95714.34
2024-01-05T06:47:23.384Z,95705.38
2024-01-05T06:49:26.586Z,95704.56
2024-01-05T06:51:31.397Z,95699.25
2024-01-05T06:53:34.573Z,95695.00
2024-01-05T06:55:37.458Z,95692.03
2024-01-05T06:57:39.293Z,95695.94
2024-01-05T06:59:42.233Z,95692.91
2024-01-05T07:01:46.649Z,95693.72
2024-01-05T07:03:49.952Z,95691.06
2024-01-05T07:05:52.869Z,95698.81
2024-01-05T07:07:55.763Z,95702.03
2024-01-05T07:09:58.671Z,95698.59
2024-01-05T07:12:01.768Z,95703.50
2024-01-05T07:14:04.683Z,95696.38
2024-01-05T07:16:17.018Z,95700.28
2024-01-05T07:18:21.294Z,95698.56
2024-01-05T07:20:24.173Z,95708.34
2024-01-05T07:22:27.291Z,95703.25
2024-01-05T07:24:30.574Z,95696.16
2024-01-05T07:26:33.871Z,95697.53
2024-01-05T07:28:36.656Z,95697.53
2024-01-05T07:30:39.907Z,95698.56
2024-01-05T07:32:42.864Z,95699.59
2024-01-05T07:34:47.863Z,95698.44
2024-01-05T07:36:51.720Z,95696.81
2024-01-05T07:38:54.586Z,95696.00
2024-01-05T07:40:58.593Z,95690.94
2024-01-05T07:43:00.403Z,95696.81
2024-01-05T07:45:05.666Z,95697.97
2024-01-05T07:47:10.621Z,95697.75
2024-01-05T07:49:13.838Z,95706.84
2024-01-05T07:51:21.310Z,95711.91
2024-01-05T07:53:24.188Z,95718.03
2024-01-05T07:55:27.052Z,95720.69
2024-01-05T07:57:30.007Z,95721.94
2024-01-05T07:59:33.195Z,95737.84
2024-01-05T08:01:36.213Z,95741.06
2024-01-05T08:03:40.061Z,95747.16
2024-01-05T08:05:47.084Z,95746.34
2024-01-05T08:07:51.912Z,95749.00
2024-01-05T08:09:54.741Z,95753.25
2024-01-05T08:11:57.576Z,95749.56
2024-01-05T08:14:01.027Z,95754.31
2024-01-05T08:16:03.024Z,95754.53
2024-01-05T08:18:06.840Z,95763.28
2024-01-05T08:20:11.979Z,95751.41
2024-01-05T08:22:14.797Z,95753.84
2024-01-05T08:24:19.133Z,95758.94
2024-01-05T08:26:21.303Z,95758.09
2024-01-05T08:28:24.124Z,95755.44
2024-01-05T08:30:27.328Z,95751.19
2024-01-05T08:32:29.474Z,95755.44
2024-01-05T08:34:32.433Z,95742.22
2024-01-05T08:36:36.203Z,95743.72
2024-01-05T08:38:39.544Z,95752.22
2024-01-05T08:40:43.790Z,95741.06
2024-01-05T08:42:47.086Z,95748.19
2024-01-05T08:44:51.605Z,95754.53
2024-01-05T08:46:54.757Z,95748.44
2024-01-05T08:48:58.245Z,95749.22
2024-01-05T08:51:00.827Z,95753.97
2024-01-05T08:53:03.647Z,95745.78
2024-01-05T08:55:07.549Z,95746.34
2024-01-05T08:57:12.486Z,95738.19
2024-01-05T08:59:15.418Z,95741.41
2024-01-05T09:01:18.408Z,95733.25
2024-01-05T09:03:20.828Z,95732.22
2024-01-05T09:05:24.055Z,95736.25
2024-01-05T09:07:26.064Z,95732.56
2024-01-05T09:09:29.069Z,95741.31
2024-01-05T09:11:31.935Z,95735.78
2024-01-05T09:13:39.176Z,95745.81
2024-01-05T09:15:42.495Z,95745.56
2024-01-05T09:17:45.403Z,95742.13
2024-01-05T09:19:48.486Z,95746.59
2024-01-05T09:21:51.473Z,95743.72
2024-01-05T09:23:54.658Z,95742.69
2024-01-05T09:25:58.374Z,95748.78
2024-01-05T09:28:02.099Z,95748.78
2024-01-05T09:30:07.865Z,95751.44
2024-01-05T09:32:11.306Z,95755.13
2024-01-05T09:34:14.818Z,95759.97
2024-01-05T09:36:18.709Z,95764.25
2024-01-05T09:38:20.967Z,95761.59
2024-01-05T09:40:24.310Z,95770.13
2024-01-05T09:42:28.400Z,95774.63
2024-01-05T09:44:32.234Z,95778.50
2024-01-05T09:46:40.157Z,95776.91
2024-01-05T09:48:47.929Z,95778.97
2024-01-05T09:50:56.287Z,95786.13
2024-01-05T09:52:59.743Z,95784.72
2024-01-05T09:55:02.581Z,95785.78
2024-01-05T09:57:07.521Z,95784.16
2024-01-05T09:59:10.342Z,95793.13
2024-01-05T10:01:23.301Z,95799.47
2024-01-05T10:03:27.956Z,95791.53
2024-01-05T10:05:31.545Z,95788.88
2024-01-05T10:07:42.360Z,95792.75
2024-01-05T10:09:51.898Z,95800.72
2024-01-05T10:11:56.058Z,95785.06
2024-01-05T10:14:01.283Z,95778.94
2024-01-05T10:16:05.979Z,95783.44
2024-01-05T10:18:19.921Z,95788.16
2024-01-05T10:20:29.511Z,95781.47
2024-01-05T10:22:34.866Z,95775.94
2024-01-05T10:24:37.893Z,95775.72
2024-01-05T10:26:40.723Z,95767.53
2024-01-05T10:28:42.674Z,95770.78
2024-01-05T10:30:45.648Z,95765.47
2024-01-05T10:32:47.717Z,95764.66
2024-01-05T10:34:52.444Z,95763.84
2024-01-05T10:37:04.621Z,95761.78
2024-01-05T10:39:10.164Z,95753.97
2024-01-05T10:41:14.186Z,95756.63
2024-01-05T10:43:19.841Z,95752.13
2024-01-05T10:45:21.919Z,95753.75
2024-01-05T10:47:26.941Z,95758.00
2024-01-05T10:49:31.602Z,95743.97
2024-01-05T10:51:35.990Z,95739.25
2024-01-05T10:53:40.388Z,95734.16
2024-01-05T10:55:44.731Z,95737.16
2024-01-05T10:57:48.000Z,95734.06
2024-01-05T10:59:52.449Z,95737.75
2024-01-05T11:01:55.410Z,95739.81
2024-01-05T11:03:58.618Z,95738.78
2024-01-05T11:06:02.381Z,95743.06
2024-01-05T11:08:05.123Z,95732.47
2024-01-05T11:10:22.099Z,95732.47
2024-01-05T11:12:38.317Z,95737.75
2024-01-05T11:14:54.260Z,95744.91
2024-01-05T11:17:22.518Z,95745.34
2024-01-05T11:19:54.703Z,95749.25
2024-01-05T11:22:02.012Z,95742.56
2024-01-05T11:24:06.130Z,95749.34
2024-01-05T11:26:31.306Z,95730.00
2024-01-05T11:28:38.202Z,95721.25
2024-01-05T11:30:41.893Z,95715.72
2024-01-05T11:32:46.975Z,95712.41
2024-01-05T11:34:50.519Z,95707.91
2024-01-05T11:36:57.179Z,95703.41
2024-01-05T11:39:00.161Z,95697.09
2024-01-05T11:41:19.156Z,95689.13
2024-01-05T11:43:43.517Z,95678.31
2024-01-05T11:45:49.944Z,95680.38
2024-01-05T11:47:52.922Z,95668.75
2024-01-05T11:49:54.914Z,95658.16
2024-01-05T11:51:58.013Z,95658.16
2024-01-05T11:54:01.211Z,95659.75
2024-01-05T11:56:09.024Z,95664.03
2024-01-05T11:58:18.421Z,95660.56
2024-01-05T12:00:21.441Z,95658.50
2024-01-05T12:02:24.394Z,95658.72
2024-01-05T12:04:27.828Z,95664.25
2024-01-05T12:06:30.788Z,95668.28
2024-01-05T12:08:33.123Z,95676.22
2024-01-05T12:10:36.824Z,95665.06
2024-01-05T12:12:39.821Z,95676.47
2024-01-05T12:14:44.929Z,95674.03
2024-01-05T12:16:48.325Z,95678.53
2024-01-05T12:18:53.762Z,95682.81
2024-01-05T12:20:57.064Z,95678.31
2024-01-05T12:22:59.921Z,95688.91
2024-01-05T12:25:02.778Z,95680.16
2024-01-05T12:27:06.663Z,95682.22
2024-01-05T12:29:10.127Z,95670.59
2024-01-05T12:31:14.882Z,95673.47
2024-01-05T12:33:17.886Z,95672.44
2024-01-05T12:35:21.363Z,95674.84
2024-01-05T12:37:25.621Z,95665.06
2024-01-05T12:39:27.466Z,95661.38
2024-01-05T12:41:30.416Z,95662.41
2024-01-05T12:43:33.810Z,95658.97
2024-01-05T12:45:36.833Z,95659.75
2024-01-05T12:47:42.009Z,95655.28
2024-01-05T12:49:45.965Z,95654.47
2024-01-05T12:51:49.771Z,95649.75
2024-01-05T12:54:04.097Z,95655.28
2024-01-05T12:56:09.201Z,95656.06
2024-01-05T12:58:12.132Z,95655.03
2024-01-05T13:00:14.515Z,95651.59
2024-01-05T13:02:18.688Z,95655.84
2024-01-05T13:04:36.471Z,95660.94
2024-01-05T13:06:45.194Z,95664.38
2024-01-05T13:08:48.360Z,95656.44
2024-01-05T13:10:51.199Z,95660.94
2024-01-05T13:12:53.338Z,95655.63
2024-01-05T13:14:56.233Z,95660.94
2024-01-05T13:17:01.649Z,95662.97
2024-01-05T13:19:06.922Z,95661.59
2024-01-05T13:21:11.583Z,95668.97
2024-01-05T13:23:17.589Z,95658.63
2024-01-05T13:25:22.279Z,95670.03
2024-01-05T13:27:24.666Z,95666.00
2024-01-05T13:29:27.711Z,95659.91
2024-01-05T13:31:30.639Z,95660.69
2024-01-05T13:33:33.050Z,95661.50
2024-01-05T13:35:37.610Z,95650.09
2024-01-05T13:37:41.956Z,95654.38
2024-01-05T13:39:44.864Z,95656.19
2024-01-05T13:41:47.877Z,95650.09
2024-01-05T13:43:51.259Z,95637.66
2024-01-05T13:45:55.216Z,95629.47
2024-01-05T13:47:58.588Z,95634.22
2024-01-05T13:50:00.857Z,95634.66
2024-01-05T13:52:04.260Z,95625.09
2024-01-05T13:54:08.552Z,95622.44
2024-01-05T13:56:10.456Z,95621.41
2024-01-05T13:58:13.560Z,95629.94
2024-01-05T14:00:16.998Z,95632.13
2024-01-05T14:02:20.645Z,95626.25
2024-01-05T14:04:22.533Z,95624.41
2024-01-05T14:06:26.133Z,95630.53
2024-01-05T14:08:30.068Z,95641.13
2024-01-05T14:10:34.457Z,95635.00
2024-01-05T14:12:37.335Z,95633.59
2024-01-05T14:14:39.444Z,95637.28
2024-01-05T14:16:42.982Z,95635.13
2024-01-05T14:18:45.021Z,95628.22
2024-01-05T14:20:48.323Z,95637.75
2024-01-05T14:22:52.228Z,95629.81
2024-01-05T14:24:55.096Z,95633.28
2024-01-05T14:26:59.589Z,95634.31
2024-01-05T14:29:02.510Z,95634.06
2024-01-05T14:31:04.966Z,95634.06
2024-01-05T14:33:08.775Z,95636.72
2024-01-05T14:35:11.870Z,95631.44
2024-01-05T14:37:14.873Z,95630.63
2024-01-05T14:39:17.875Z,95623.72
2024-01-05T14:41:19.987Z,95614.72
2024-01-05T14:43:24.232Z,95619.22
2024-01-05T14:45:27.448Z,95619.22
2024-01-05T14:47:30.624Z,95613.94
2024-01-05T14:49:33.783Z,95613.34
2024-01-05T14:51:37.269Z,95611.97
2024-01-05T14:53:40.552Z,95613.22
2024-01-05T14:55:45.287Z,95615.31
2024-01-05T14:57:48.782Z,95616.81
2024-01-05T14:59:53.945Z,95605.03
2024-01-05T15:01:58.758Z,95608.13
2024-01-05T15:04:02.086Z,95605.47
2024-01-05T15:06:06.090Z,95604.91
2024-01-05T15:08:08.984Z,95612.28
2024-01-05T15:10:13.519Z,95611.47
2024-01-05T15:12:17.277Z,95611.13
2024-01-05T15:14:19.183Z,95617.47
2024-01-05T15:16:23.717Z,95611.31
2024-01-05T15:18:27.532Z,95608.91
2024-01-05T15:20:30.645Z,95609.16
2024-01-05T15:22:34.315Z,95611.00
2024-01-05T15:24:39.995Z,95612.25
2024-01-05T15:26:46.065Z,95616.97
2024-01-05T15:28:48.959Z,95616.03
2024-01-05T15:30:51.906Z,95623.97
2024-01-05T15:32:56.547Z,95618.09
2024-01-05T15:35:00.303Z,95616.50
2024-01-05T15:37:03.646Z,95614.66
2024-01-05T15:39:07.046Z,95611.53
2024-01-05T15:41:10.153Z,95611.78
2024-01-05T15:43:13.257Z,95607.84
2024-01-05T15:45:15.429Z,95607.66
2024-01-05T15:47:20.749Z,95608.81
2024-01-05T15:49:25.514Z,95611.00
2024-01-05T15:51:31.010Z,95612.84
2024-01-05T15:53:34.874Z,95613.63
2024-01-05T15:55:41.208Z,95607.78
2024-01-05T15:57:47.830Z,95600.88
2024-01-05T15:59:51.028Z,95605.34
2024-01-05T16:01:53.948Z,95603.50
2024-01-05T16:03:57.864Z,95598.22
2024-01-05T16:06:02.541Z,95601.19
2024-01-05T16:08:06.196Z,95594.88
2024-01-05T16:10:10.462Z,95594.63
2024-01-05T16:12:13.458Z,95596.03
2024-01-05T16:14:18.224Z,95593.63
2024-01-05T16:16:25.298Z,95600.53
2024-01-05T16:18:28.182Z,95595.25
2024-01-05T16:20:31.107Z,95606.63
2024-01-05T16:22:35.324Z,95611.94
2024-01-05T16:24:38.470Z,95614.81
2024-01-05T16:26:41.583Z,95611.31
2024-01-05T16:28:44.461Z,95618.47
2024-01-05T16:30:48.874Z,95616.06
2024-01-05T16:32:51.788Z,95617.91
2024-01-05T16:34:54.845Z,95613.88
2024-01-05T16:36:57.848Z,95610.41
2024-01-05T16:39:01.730Z,95615.72
2024-01-05T16:41:07.791Z,95609.84
2024-01-05T16:43:09.886Z,95614.56
2024-01-05T16:45:13.579Z,95606.63
2024-01-05T16:47:16.514Z,95605.00
2024-01-05T16:49:19.771Z,95609.69
2024-01-05T16:51:23.891Z,95613.84
2024-01-05T16:53:28.843Z,95617.53
2024-01-05T16:55:33.106Z,95620.19
2024-01-05T16:57:36.092Z,95617.53
2024-01-05T16:59:38.307Z,95613.28
2024-01-05T17:01:41.843Z,95612.69
2024-01-05T17:03:46.402Z,95612.69
2024-01-05T17:05:49.480Z,95614.31
2024-01-05T17:07:52.476Z,95615.34
2024-01-05T17:09:55.469Z,95611.66
2024-01-05T17:12:00.342Z,95603.97
2024-01-05T17:14:03.867Z,95607.41
2024-01-05T17:16:10.173Z,95609.59
2024-01-05T17:18:13.456Z,95608.56
2024-01-05T17:20:24.036Z,95612.00
2024-01-05T17:22:28.450Z,95614.19
2024-01-05T17:24:31.334Z,95613.63
2024-01-05T17:26:39.538Z,95610.16
2024-01-05T17:28:44.097Z,95613.63
2024-01-05T17:30:48.180Z,95605.91
2024-01-05T17:32:51.104Z,95611.78
2024-01-05T17:34:54.050Z,95614.66
2024-01-05T17:36:57.271Z,95614.41
2024-01-05T17:38:59.591Z,95616.84
2024-01-05T17:41:02.412Z,95616.84
2024-01-05T17:43:06.837Z,95628.84
2024-01-05T17:45:11.583Z,95616.59
2024-01-05T17:47:15.092Z,95622.13
2024-01-05T17:49:17.623Z,95621.31
2024-01-05T17:51:20.682Z,95620.28
2024-01-05T17:53:23.645Z,95625.59
2024-01-05T17:55:26.793Z,95623.16
2024-01-05T17:57:29.705Z,95621.56
2024-01-05T17:59:32.929Z,95620.75
2024-01-05T18:01:43.210Z,95620.75
2024-01-05T18:03:46.504Z,95620.53
2024-01-05T18:05:49.825Z,95619.72
2024-01-05T18:07:54.470Z,95628.47
2024-01-05T18:09:57.495Z,95623.16
2024-01-05T18:12:00.327Z,95625.81
2024-01-05T18:14:04.538Z,95626.03
2024-01-05T18:16:08.905Z,95623.16
2024-01-05T18:18:13.354Z,95622.38
2024-01-05T18:20:15.375Z,95625.59
2024-01-05T18:22:18.193Z,95625.59
2024-01-05T18:24:21.999Z,95622.94
2024-01-05T18:26:28.320Z,95630.88
2024-01-05T18:28:31.232Z,95632.28
2024-01-05T18:30:33.208Z,95629.84
2024-01-05T18:32:36.168Z,95628.84
2024-01-05T18:34:45.754Z,95635.13
2024-01-05T18:36:48.834Z,95626.19
2024-01-05T18:38:52.706Z,95631.09
2024-01-05T18:40:56.422Z,95626.03
2024-01-05T18:43:00.086Z,95629.72
2024-01-05T18:45:02.084Z,95634.22
2024-01-05T18:47:05.555Z,95626.50
2024-01-05T18:49:09.063Z,95630.19
2024-01-05T18:51:14.168Z,95631.00
2024-01-05T18:53:17.245Z,95635.47
2024-01-05T18:55:20.315Z,95637.66
2024-01-05T18:57:23.484Z,95637.66
2024-01-05T18:59:25.359Z,95635.03
2024-01-05T19:01:28.385Z,95635.03
2024-01-05T19:03:31.900Z,95640.09
2024-01-05T19:05:34.872Z,95638.00
2024-01-05T19:07:39.174Z,95643.53
2024-01-05T19:09:42.034Z,95643.19
2024-01-05T19:11:44.838Z,95638.34
2024-01-05T19:13:47.824Z,95635.09
2024-01-05T19:15:51.622Z,95643.28
2024-01-05T19:17:54.692Z,95636.38
2024-01-05T19:19:57.923Z,95639.00
2024-01-05T19:22:00.826Z,95636.59
2024-01-05T19:24:05.326Z,95636.84
2024-01-05T19:26:08.624Z,95640.50
2024-01-05T19:28:10.819Z,95641.56
2024-01-05T19:30:14.724Z,95639.94
2024-01-05T19:32:17.641Z,95637.28
2024-01-05T19:34:20.581Z,95636.47
2024-01-05T19:36:23.530Z,95642.59
2024-01-05T19:38:26.521Z,95643.63
2024-01-05T19:40:32.734Z,95642.59
2024-01-05T19:42:36.727Z,95644.44
2024-01-05T19:44:39.672Z,95647.88
2024-01-05T19:46:42.538Z,95654.19
2024-01-05T19:48:45.815Z,95653.38
2024-01-05T19:50:49.123Z,95652.38
2024-01-05T19:52:52.201Z,95656.63
2024-01-05T19:54:55.966Z,95654.31
2024-01-05T19:57:00.379Z,95659.38
2024-01-05T19:59:02.167Z,95661.81
2024-01-05T20:01:05.861Z,95660.75
2024-01-05T20:03:09.653Z,95660.75
2024-01-05T20:05:12.633Z,95663.19
2024-01-05T20:07:17.052Z,95651.78
2024-01-05T20:09:20.586Z,95664.03
2024-01-05T20:11:23.467Z,95662.38
2024-01-05T20:13:28.362Z,95662.84
2024-01-05T20:15:31.878Z,95661.22
2024-01-05T20:17:34.919Z,95659.63
2024-01-05T20:19:38.558Z,95661.22
2024-01-05T20:21:41.568Z,95657.78
2024-01-05T20:23:44.666Z,95655.94
2024-01-05T20:25:47.691Z,95659.63
2024-01-05T20:27:50.584Z,95655.13
2024-01-05T20:29:54.005Z,95656.16
2024-01-05T20:31:57.259Z,95654.56
2024-01-05T20:34:00.930Z,95650.28
2024-01-05T20:36:04.960Z,95659.84
2024-01-05T20:38:07.800Z,95654.19
2024-01-05T20:40:11.377Z,95657.84
2024-01-05T20:42:14.384Z,95649.34
2024-01-05T20:44:18.407Z,95646.69
2024-01-05T20:46:23.864Z,95643.00
2024-01-05T20:48:27.071Z,95629.66
2024-01-05T20:50:28.909Z,95642.09
2024-01-05T20:52:34.298Z,95643.94
2024-01-05T20:54:36.202Z,95642.09
2024-01-05T20:56:39.113Z,95656.34
2024-01-05T20:58:45.335Z,95648.41
2024-01-05T21:00:50.992Z,95657.97
2024-01-05T21:02:55.179Z,95654.50
2024-01-05T21:04:57.237Z,95656.56
2024-01-05T21:07:01.250Z,95654.97
2024-01-05T21:09:06.157Z,95652.91
2024-01-05T21:11:08.982Z,95649.44
2024-01-05T21:13:11.996Z,95658.19
2024-01-05T21:15:14.963Z,95653.69
2024-01-05T21:17:17.918Z,95660.59
2024-01-05T21:19:22.669Z,95656.34
2024-01-05T21:21:28.715Z,95663.47
2024-01-05T21:23:31.631Z,95673.59
2024-01-05T21:25:34.671Z,95669.94
2024-01-05T21:27:37.845Z,95667.28
2024-01-05T21:29:42.887Z,95667.28
2024-01-05T21:31:48.419Z,95666.47
2024-01-05T21:33:51.449Z,95662.22
2024-01-05T21:35:55.770Z,95659.13
2024-01-05T21:37:58.933Z,95662.56
2024-01-05T21:40:01.764Z,95661.53
2024-01-05T21:42:06.144Z,95662.56
2024-01-05T21:44:09.202Z,95659.00
2024-01-05T21:46:12.940Z,95662.69
2024-01-05T21:48:15.863Z,95663.47
2024-01-05T21:50:18.799Z,95665.91
2024-01-05T21:52:23.010Z,95671.19
2024-01-05T21:54:27.133Z,95670.38
2024-01-05T21:56:30.375Z,95666.69
2024-01-05T21:58:33.315Z,95669.94
2024-01-05T22:00:36.251Z,95660.38
2024-01-05T22:02:39.140Z,95661.75
2024-01-05T22:04:41.915Z,95667.84
2024-01-05T22:06:45.064Z,95671.09
2024-01-05T22:08:50.791Z,95679.03
2024-01-05T22:10:53.788Z,95676.38
2024-01-05T22:12:58.810Z,95681.47
2024-01-05T22:15:02.256Z,95682.28
2024-01-05T22:17:05.467Z,95680.66
2024-01-05T22:19:07.881Z,95684.31
2024-01-05T22:21:12.366Z,95684.13
2024-01-05T22:23:15.563Z,95683.31
2024-01-05T22:25:19.751Z,95682.47
2024-01-05T22:27:23.967Z,95680.06
2024-01-05T22:29:27.313Z,95688.22
2024-01-05T22:31:31.516Z,95685.81
2024-01-05T22:33:34.597Z,95685.44
2024-01-05T22:35:38.896Z,95676.13
2024-01-05T22:37:42.054Z,95676.34
2024-01-05T22:39:44.953Z,95672.53
2024-01-05T22:41:49.484Z,95672.19
2024-01-05T22:43:53.418Z,95677.69
2024-01-05T22:45:56.390Z,95673.44
2024-01-05T22:47:59.616Z,95671.78
2024-01-05T22:50:02.761Z,95661.22
2024-01-05T22:52:07.561Z,95658.38
2024-01-05T22:54:10.421Z,95661.03
2024-01-05T22:56:13.585Z,95657.75
2024-01-05T22:58:16.819Z,95652.69
2024-01-05T23:00:22.472Z,95656.38
2024-01-05T23:02:26.312Z,95655.56
2024-01-05T23:04:29.352Z,95664.53
2024-01-05T23:06:32.370Z,95666.38
2024-01-05T23:08:35.299Z,95675.13
2024-01-05T23:10:38.141Z,95676.72
2024-01-05T23:12:41.040Z,95678.34
2024-01-05T23:14:45.263Z,95678.34
2024-01-05T23:16:50.129Z,95673.06
2024-01-05T23:18:54.022Z,95670.19
2024-01-05T23:20:57.846Z,95667.75
2024-01-05T23:23:00.786Z,95668.00
2024-01-05T23:25:03.491Z,95676.28
2024-01-05T23:27:06.690Z,95673.06
2024-01-05T23:29:11.178Z,95670.63
2024-01-05T23:31:15.480Z,95681.22
2024-01-05T23:33:17.481Z,95674.91
2024-01-05T23:35:20.527Z,95684.22
2024-01-05T23:37:23.842Z,95684.81
2024-01-05T23:39:26.701Z,95690.13
2024-01-05T23:41:30.525Z,95697.44
2024-01-05T23:43:33.056Z,95695.41
2024-01-05T23:45:35.984Z,95702.31
2024-01-05T23:47:40.296Z,95704.72
2024-01-05T23:49:43.559Z,95709.22
2024-01-05T23:51:46.589Z,95709.22
2024-01-05T23:53:50.330Z,95714.50
2024-01-05T23:55:53.256Z,95716.34
2024-01-05T23:57:56.124Z,95721.03
2024-01-05T23:59:59.499Z,95726.34
